Portada
METAR-TAF:

METAR-TAF

Aeroports :

Glasgow Prestwick, Escòcia

latitud: 55-30N, longitud: 004-35W, altitud: 20 m

Observació

L'informe es va fer fa 32 minuts, a les 20:20 UTC
Vent calma
Temperatura 17°C
Humitat 68%
Pressió 1017 hPa
Visibilitat 10 km o més
Núvols disperses a una alçada de 4800 ft

METAR: EGPK 242020Z 00000KT 9999 SCT048 17/11 Q1017

Hora: 21:52 (20:52 UTC)

Pronòstic

L'informe es va fer fa 3 hores i 59 minuts, a les 16:53 UTC
Pronòstic vàlid del 24 a les 18 UTC al 25 a les 18 UTC
Vent 5 kt del Est
Visibilitat 10 km o més
sense núvols per sota de 1500 mi sense presència de cumulonimbus.
Evolucionant progressivament
l' 25 a les 12 UTC al 25 a les 15 UTC
Vent 10 kt del Oest

TAF: EGPK 241653Z 2418/2518 10005KT CAVOK BECMG 2512/2515 26010KT

Observacions i pronòstics meteorològics de més de 4000 aeroports (METAR i TAF).

Les estacions disponibles són els punts grocs i vermells al mapa.

Posi el ratolí al punt desitjat per veure el nom de l'estació.

Feu clic per veure les observacions i els pronòstics meteorològics.

Per canviar el mapa: feu clic els botons verds amb una creu de color negre per apropar; al botó verd amb un guió per allunyar la imatge; o en les fletxes verdes per a mapes adjacents.


METAR-TAF: